LUF weather

Public forecast

Using degrees Fahrenheit for public forecast. Weather courtesy of forecast.io.

Current aviation weather report (METAR) for Luke Air Force Base

Retrieved 2020/08/12 11:58 UTC (39 minutes ago):

KLUF 121158Z AUTO 11003KT 10SM CLR 32/16 A2983 RMK AO2 SLP084 T03160155 10352 20311 50003

Aviation forecast (TAF) for Luke Air Force Base

Retrieved 2020/08/12 12:03 UTC (34 minutes ago):

TAF TAF KLUF 121200Z 1212/1318 VRB06KT 9999 SKC QNH2980INS BECMG 1221/1222 26012G22KT 9999 FEW200 QNH2973INS BECMG 1301/1302 25009KT 9999 FEW150 FEW220 QNH2975INS BECMG 1307/1308 VRB06KT 9999 FEW150 SCT220 QNH2977INS TX43/1221Z TN29/1213Z